sensor_id;sensor_type;location;lat;lon;timestamp;pressure;altitude;pressure_sealevel;temperature;humidity
49311;BME280;35177;45.900;5.946;2023-10-19T00:02:42;96319.09;;;12.95;100.00
49311;BME280;35177;45.900;5.946;2023-10-19T00:08:28;96308.97;;;13.08;100.00
49311;BME280;35177;45.900;5.946;2023-10-19T00:11:01;96304.34;;;13.10;100.00
49311;BME280;35177;45.900;5.946;2023-10-19T00:13:27;96303.69;;;13.08;100.00
49311;BME280;35177;45.900;5.946;2023-10-19T00:15:55;96305.22;;;13.01;100.00
49311;BME280;35177;45.900;5.946;2023-10-19T00:18:22;96304.44;;;12.91;100.00
49311;BME280;35177;45.900;5.946;2023-10-19T00:20:51;96309.16;;;12.97;100.00
49311;BME280;35177;45.900;5.946;2023-10-19T00:23:19;96303.00;;;12.97;100.00
49311;BME280;35177;45.900;5.946;2023-10-19T00:25:50;96298.94;;;13.02;100.00
49311;BME280;35177;45.900;5.946;2023-10-19T00:28:19;96296.56;;;12.99;100.00
49311;BME280;35177;45.900;5.946;2023-10-19T00:30:45;96285.09;;;12.99;100.00
49311;BME280;35177;45.900;5.946;2023-10-19T00:33:13;96277.97;;;12.99;100.00
49311;BME280;35177;45.900;5.946;2023-10-19T00:35:46;96276.84;;;13.02;100.00
49311;BME280;35177;45.900;5.946;2023-10-19T00:38:31;96282.16;;;13.02;100.00
49311;BME280;35177;45.900;5.946;2023-10-19T00:41:03;96285.50;;;13.04;100.00
49311;BME280;35177;45.900;5.946;2023-10-19T00:43:35;96291.13;;;13.01;100.00
49311;BME280;35177;45.900;5.946;2023-10-19T00:46:05;96280.63;;;12.99;100.00
49311;BME280;35177;45.900;5.946;2023-10-19T00:48:59;96276.00;;;13.01;100.00
49311;BME280;35177;45.900;5.946;2023-10-19T00:51:27;96268.34;;;12.98;100.00
49311;BME280;35177;45.900;5.946;2023-10-19T00:53:58;96274.88;;;13.04;100.00
49311;BME280;35177;45.900;5.946;2023-10-19T00:56:29;96275.47;;;13.07;100.00
49311;BME280;35177;45.900;5.946;2023-10-19T00:58:58;96277.81;;;13.10;100.00
49311;BME280;35177;45.900;5.946;2023-10-19T01:01:50;96283.44;;;13.07;100.00
49311;BME280;35177;45.900;5.946;2023-10-19T01:04:18;96280.22;;;12.94;100.00
49311;BME280;35177;45.900;5.946;2023-10-19T01:06:57;96275.59;;;12.96;100.00
49311;BME280;35177;45.900;5.946;2023-10-19T01:09:29;96277.91;;;12.91;100.00
49311;BME280;35177;45.900;5.946;2023-10-19T01:12:00;96274.84;;;12.86;100.00
49311;BME280;35177;45.900;5.946;2023-10-19T01:14:28;96279.59;;;12.83;100.00
49311;BME280;35177;45.900;5.946;2023-10-19T01:16:55;96272.47;;;12.83;100.00
49311;BME280;35177;45.900;5.946;2023-10-19T01:19:24;96254.06;;;12.82;100.00
49311;BME280;35177;45.900;5.946;2023-10-19T01:21:52;96241.97;;;12.87;100.00
49311;BME280;35177;45.900;5.946;2023-10-19T01:24:24;96246.31;;;12.88;100.00
49311;BME280;35177;45.900;5.946;2023-10-19T01:27:07;96245.09;;;12.83;100.00
49311;BME280;35177;45.900;5.946;2023-10-19T01:29:35;96239.94;;;12.81;100.00
49311;BME280;35177;45.900;5.946;2023-10-19T01:32:04;96243.56;;;12.80;100.00
49311;BME280;35177;45.900;5.946;2023-10-19T01:34:37;96229.59;;;12.78;100.00
49311;BME280;35177;45.900;5.946;2023-10-19T01:37:02;96228.72;;;12.87;100.00
49311;BME280;35177;45.900;5.946;2023-10-19T01:39:33;96227.44;;;12.91;100.00
49311;BME280;35177;45.900;5.946;2023-10-19T01:42:00;96224.78;;;12.91;100.00
49311;BME280;35177;45.900;5.946;2023-10-19T01:44:26;96230.19;;;12.99;100.00
49311;BME280;35177;45.900;5.946;2023-10-19T01:46:53;96231.19;;;12.98;100.00
49311;BME280;35177;45.900;5.946;2023-10-19T01:49:18;96212.19;;;12.93;100.00
49311;BME280;35177;45.900;5.946;2023-10-19T01:51:52;96205.59;;;12.97;100.00
49311;BME280;35177;45.900;5.946;2023-10-19T01:54:19;96198.47;;;12.98;100.00
49311;BME280;35177;45.900;5.946;2023-10-19T01:56:50;96184.91;;;13.01;100.00
49311;BME280;35177;45.900;5.946;2023-10-19T01:59:16;96198.88;;;13.03;100.00
49311;BME280;35177;45.900;5.946;2023-10-19T02:01:42;96212.44;;;13.00;100.00
49311;BME280;35177;45.900;5.946;2023-10-19T02:04:10;96212.44;;;13.00;100.00
49311;BME280;35177;45.900;5.946;2023-10-19T02:06:38;96195.13;;;12.96;100.00
49311;BME280;35177;45.900;5.946;2023-10-19T02:09:11;96181.03;;;12.95;100.00
49311;BME280;35177;45.900;5.946;2023-10-19T02:11:39;96177.53;;;12.95;100.00
49311;BME280;35177;45.900;5.946;2023-10-19T02:14:08;96174.13;;;13.02;100.00
49311;BME280;35177;45.900;5.946;2023-10-19T02:16:40;96173.88;;;13.05;100.00
49311;BME280;35177;45.900;5.946;2023-10-19T02:19:06;96175.53;;;13.06;100.00
49311;BME280;35177;45.900;5.946;2023-10-19T02:21:31;96174.53;;;13.07;100.00
49311;BME280;35177;45.900;5.946;2023-10-19T02:23:58;96172.69;;;13.08;100.00
49311;BME280;35177;45.900;5.946;2023-10-19T02:26:24;96154.94;;;13.08;100.00
49311;BME280;35177;45.900;5.946;2023-10-19T02:28:52;96139.56;;;13.12;100.00
49311;BME280;35177;45.900;5.946;2023-10-19T02:31:18;96132.09;;;13.15;100.00
49311;BME280;35177;45.900;5.946;2023-10-19T02:33:47;96141.91;;;13.15;100.00
49311;BME280;35177;45.900;5.946;2023-10-19T02:36:17;96135.44;;;13.17;100.00
49311;BME280;35177;45.900;5.946;2023-10-19T02:38:47;96128.63;;;13.15;100.00
49311;BME280;35177;45.900;5.946;2023-10-19T02:41:17;96125.66;;;13.18;100.00
49311;BME280;35177;45.900;5.946;2023-10-19T02:43:44;96121.47;;;13.15;100.00
49311;BME280;35177;45.900;5.946;2023-10-19T02:46:13;96130.47;;;13.14;100.00
49311;BME280;35177;45.900;5.946;2023-10-19T02:48:39;96123.47;;;13.13;100.00
49311;BME280;35177;45.900;5.946;2023-10-19T02:51:10;96113.13;;;13.10;100.00
49311;BME280;35177;45.900;5.946;2023-10-19T02:53:39;96114.28;;;13.08;100.00
49311;BME280;35177;45.900;5.946;2023-10-19T02:58:41;96110.13;;;13.05;100.00
49311;BME280;35177;45.900;5.946;2023-10-19T03:01:20;96114.81;;;13.11;100.00
49311;BME280;35177;45.900;5.946;2023-10-19T03:03:54;96110.34;;;13.12;100.00
49311;BME280;35177;45.900;5.946;2023-10-19T03:06:23;96111.19;;;13.12;100.00
49311;BME280;35177;45.900;5.946;2023-10-19T03:08:49;96104.72;;;13.15;100.00
49311;BME280;35177;45.900;5.946;2023-10-19T03:11:25;96095.00;;;13.23;100.00
49311;BME280;35177;45.900;5.946;2023-10-19T03:13:55;96086.72;;;13.27;100.00
49311;BME280;35177;45.900;5.946;2023-10-19T03:16:22;96070.75;;;13.27;100.00
49311;BME280;35177;45.900;5.946;2023-10-19T03:18:49;96079.13;;;13.32;100.00
49311;BME280;35177;45.900;5.946;2023-10-19T03:21:16;96074.34;;;13.35;100.00
49311;BME280;35177;45.900;5.946;2023-10-19T03:23:42;96079.50;;;13.37;100.00
49311;BME280;35177;45.900;5.946;2023-10-19T03:26:08;96073.88;;;13.40;100.00
49311;BME280;35177;45.900;5.946;2023-10-19T03:28:51;96065.59;;;13.43;100.00
49311;BME280;35177;45.900;5.946;2023-10-19T03:31:21;96044.69;;;13.48;100.00
49311;BME280;35177;45.900;5.946;2023-10-19T03:33:48;96055.97;;;13.50;100.00
49311;BME280;35177;45.900;5.946;2023-10-19T03:36:18;96055.97;;;13.50;100.00
49311;BME280;35177;45.900;5.946;2023-10-19T03:38:44;96066.63;;;13.50;100.00
49311;BME280;35177;45.900;5.946;2023-10-19T03:41:11;96061.94;;;13.44;100.00
49311;BME280;35177;45.900;5.946;2023-10-19T03:43:36;96063.72;;;13.35;100.00
49311;BME280;35177;45.900;5.946;2023-10-19T03:46:06;96061.81;;;13.28;100.00
49311;BME280;35177;45.900;5.946;2023-10-19T03:48:45;96055.19;;;13.32;100.00
49311;BME280;35177;45.900;5.946;2023-10-19T03:51:11;96057.06;;;13.31;100.00
49311;BME280;35177;45.900;5.946;2023-10-19T03:53:39;96047.41;;;13.30;100.00
49311;BME280;35177;45.900;5.946;2023-10-19T03:56:09;96045.25;;;13.34;100.00
49311;BME280;35177;45.900;5.946;2023-10-19T03:58:37;96031.84;;;13.35;100.00
49311;BME280;35177;45.900;5.946;2023-10-19T04:01:04;96030.69;;;13.38;100.00
49311;BME280;35177;45.900;5.946;2023-10-19T04:03:30;96028.69;;;13.40;100.00
49311;BME280;35177;45.900;5.946;2023-10-19T04:05:56;96025.19;;;13.39;100.00
49311;BME280;35177;45.900;5.946;2023-10-19T04:08:28;96025.56;;;13.44;100.00
49311;BME280;35177;45.900;5.946;2023-10-19T04:10:59;96023.28;;;13.49;100.00
49311;BME280;35177;45.900;5.946;2023-10-19T04:13:44;96025.47;;;13.54;100.00
49311;BME280;35177;45.900;5.946;2023-10-19T04:16:10;96026.81;;;13.58;100.00
49311;BME280;35177;45.900;5.946;2023-10-19T04:18:35;96031.41;;;13.48;100.00
49311;BME280;35177;45.900;5.946;2023-10-19T04:21:08;96023.91;;;13.43;100.00
49311;BME280;35177;45.900;5.946;2023-10-19T04:23:33;96025.19;;;13.39;100.00
49311;BME280;35177;45.900;5.946;2023-10-19T04:26:00;96016.94;;;13.42;100.00
49311;BME280;35177;45.900;5.946;2023-10-19T04:28:31;96015.25;;;13.41;100.00
49311;BME280;35177;45.900;5.946;2023-10-19T04:30:57;96008.13;;;13.42;100.00
49311;BME280;35177;45.900;5.946;2023-10-19T04:33:28;95998.69;;;13.47;100.00
49311;BME280;35177;45.900;5.946;2023-10-19T04:35:54;96003.00;;;13.48;100.00
49311;BME280;35177;45.900;5.946;2023-10-19T04:38:22;96000.88;;;13.52;100.00
49311;BME280;35177;45.900;5.946;2023-10-19T04:40:48;95993.88;;;13.51;100.00
49311;BME280;35177;45.900;5.946;2023-10-19T04:43:13;95985.91;;;13.51;100.00
49311;BME280;35177;45.900;5.946;2023-10-19T04:45:42;95984.94;;;13.52;100.00
49311;BME280;35177;45.900;5.946;2023-10-19T04:48:09;95978.72;;;13.43;100.00
49311;BME280;35177;45.900;5.946;2023-10-19T04:50:35;95978.25;;;13.22;100.00
49311;BME280;35177;45.900;5.946;2023-10-19T04:53:00;95983.38;;;13.15;100.00
49311;BME280;35177;45.900;5.946;2023-10-19T04:55:27;95981.06;;;13.12;100.00
49311;BME280;35177;45.900;5.946;2023-10-19T04:57:52;95983.75;;;13.20;100.00
49311;BME280;35177;45.900;5.946;2023-10-19T05:00:19;95991.72;;;13.20;100.00
49311;BME280;35177;45.900;5.946;2023-10-19T05:02:45;95985.25;;;13.23;100.00
49311;BME280;35177;45.900;5.946;2023-10-19T05:05:11;95981.47;;;13.26;100.00
49311;BME280;35177;45.900;5.946;2023-10-19T05:07:38;95981.16;;;13.29;100.00
49311;BME280;35177;45.900;5.946;2023-10-19T05:10:04;95977.47;;;13.21;100.00
49311;BME280;35177;45.900;5.946;2023-10-19T05:12:30;95977.75;;;13.18;100.00
49311;BME280;35177;45.900;5.946;2023-10-19T05:14:56;95962.81;;;13.17;100.00
49311;BME280;35177;45.900;5.946;2023-10-19T05:17:21;95972.16;;;13.21;100.00
49311;BME280;35177;45.900;5.946;2023-10-19T05:19:48;95973.78;;;13.22;100.00
49311;BME280;35177;45.900;5.946;2023-10-19T05:22:14;95972.16;;;13.21;100.00
49311;BME280;35177;45.900;5.946;2023-10-19T05:24:40;95971.81;;;13.24;100.00
49311;BME280;35177;45.900;5.946;2023-10-19T05:27:05;95974.84;;;13.30;100.00
49311;BME280;35177;45.900;5.946;2023-10-19T05:29:31;95975.66;;;13.30;100.00
49311;BME280;35177;45.900;5.946;2023-10-19T05:32:01;95974.84;;;13.30;100.00
49311;BME280;35177;45.900;5.946;2023-10-19T05:34:27;95961.84;;;13.27;100.00
49311;BME280;35177;45.900;5.946;2023-10-19T05:36:54;95962.22;;;13.32;100.00
49311;BME280;35177;45.900;5.946;2023-10-19T05:39:23;95966.56;;;13.33;100.00
49311;BME280;35177;45.900;5.946;2023-10-19T05:41:53;95971.19;;;13.31;100.00
49311;BME280;35177;45.900;5.946;2023-10-19T05:44:19;95960.88;;;13.28;100.00
49311;BME280;35177;45.900;5.946;2023-10-19T05:46:44;95955.38;;;13.21;100.00
49311;BME280;35177;45.900;5.946;2023-10-19T05:49:12;95930.44;;;13.22;100.00
49311;BME280;35177;45.900;5.946;2023-10-19T05:51:37;95923.53;;;13.29;100.00
49311;BME280;35177;45.900;5.946;2023-10-19T05:54:04;95913.72;;;13.30;100.00
49311;BME280;35177;45.900;5.946;2023-10-19T05:56:30;95923.03;;;13.34;100.00
49311;BME280;35177;45.900;5.946;2023-10-19T05:58:56;95917.06;;;13.32;100.00
49311;BME280;35177;45.900;5.946;2023-10-19T06:01:22;95908.22;;;13.23;100.00
49311;BME280;35177;45.900;5.946;2023-10-19T06:03:47;95900.25;;;13.23;100.00
49311;BME280;35177;45.900;5.946;2023-10-19T06:06:13;95895.44;;;13.27;100.00
49311;BME280;35177;45.900;5.946;2023-10-19T06:08:40;95904.78;;;13.31;100.00
49311;BME280;35177;45.900;5.946;2023-10-19T06:11:06;95895.00;;;13.31;100.00
49311;BME280;35177;45.900;5.946;2023-10-19T06:13:31;95889.34;;;13.34;100.00
49311;BME280;35177;45.900;5.946;2023-10-19T06:15:57;95889.69;;;13.39;100.00
49311;BME280;35177;45.900;5.946;2023-10-19T06:18:22;95894.91;;;13.49;100.00
49311;BME280;35177;45.900;5.946;2023-10-19T06:20:48;95899.06;;;13.51;100.00
49311;BME280;35177;45.900;5.946;2023-10-19T06:23:15;95892.59;;;13.54;100.00
49311;BME280;35177;45.900;5.946;2023-10-19T06:25:42;95887.28;;;13.54;100.00
49311;BME280;35177;45.900;5.946;2023-10-19T06:28:08;95886.78;;;13.58;100.00
49311;BME280;35177;45.900;5.946;2023-10-19T06:30:34;95892.13;;;13.66;100.00
49311;BME280;35177;45.900;5.946;2023-10-19T06:33:00;95878.88;;;13.74;100.00
49311;BME280;35177;45.900;5.946;2023-10-19T06:35:27;95880.69;;;13.74;100.00
49311;BME280;35177;45.900;5.946;2023-10-19T06:37:54;95873.41;;;13.84;100.00
49311;BME280;35177;45.900;5.946;2023-10-19T06:40:20;95876.41;;;13.97;100.00
49311;BME280;35177;45.900;5.946;2023-10-19T06:42:46;95880.41;;;14.01;100.00
49311;BME280;35177;45.900;5.946;2023-10-19T06:45:13;95872.09;;;14.04;100.00
49311;BME280;35177;45.900;5.946;2023-10-19T06:47:43;95869.25;;;14.06;100.00
49311;BME280;35177;45.900;5.946;2023-10-19T06:50:10;95873.44;;;14.08;100.00
49311;BME280;35177;45.900;5.946;2023-10-19T06:52:39;95877.75;;;14.09;100.00
49311;BME280;35177;45.900;5.946;2023-10-19T06:55:06;95879.09;;;14.13;100.00
49311;BME280;35177;45.900;5.946;2023-10-19T06:57:39;95878.25;;;14.13;100.00
49311;BME280;35177;45.900;5.946;2023-10-19T07:00:05;95876.09;;;14.16;100.00
49311;BME280;35177;45.900;5.946;2023-10-19T07:02:40;95882.63;;;14.30;100.00
49311;BME280;35177;45.900;5.946;2023-10-19T07:05:07;95877.31;;;14.38;100.00
49311;BME280;35177;45.900;5.946;2023-10-19T07:07:36;95874.66;;;14.54;100.00
49311;BME280;35177;45.900;5.946;2023-10-19T07:10:06;95869.13;;;14.72;100.00
49311;BME280;35177;45.900;5.946;2023-10-19T07:12:34;95870.47;;;14.76;100.00
49311;BME280;35177;45.900;5.946;2023-10-19T07:14:59;95878.44;;;14.76;100.00
49311;BME280;35177;45.900;5.946;2023-10-19T07:17:26;95877.78;;;14.74;100.00
49311;BME280;35177;45.900;5.946;2023-10-19T07:19:52;95874.31;;;14.65;100.00
49311;BME280;35177;45.900;5.946;2023-10-19T07:22:18;95867.47;;;14.54;100.00
49311;BME280;35177;45.900;5.946;2023-10-19T07:24:48;95878.47;;;14.51;100.00
49311;BME280;35177;45.900;5.946;2023-10-19T07:27:13;95877.31;;;14.54;100.00
49311;BME280;35177;45.900;5.946;2023-10-19T07:29:44;95886.94;;;14.55;100.00
49311;BME280;35177;45.900;5.946;2023-10-19T07:32:09;95882.13;;;14.50;100.00
49311;BME280;35177;45.900;5.946;2023-10-19T07:34:39;95877.31;;;14.46;100.00
49311;BME280;35177;45.900;5.946;2023-10-19T07:37:05;95871.16;;;14.37;100.00
49311;BME280;35177;45.900;5.946;2023-10-19T07:39:32;95883.13;;;14.33;100.00
49311;BME280;35177;45.900;5.946;2023-10-19T07:41:59;95877.47;;;14.28;100.00
49311;BME280;35177;45.900;5.946;2023-10-19T07:44:24;95872.47;;;14.33;100.00
49311;BME280;35177;45.900;5.946;2023-10-19T07:46:51;95880.81;;;14.30;100.00
49311;BME280;35177;45.900;5.946;2023-10-19T07:49:16;95874.66;;;14.30;100.00
49311;BME280;35177;45.900;5.946;2023-10-19T07:51:46;95869.31;;;14.30;100.00
49311;BME280;35177;45.900;5.946;2023-10-19T07:54:12;95883.94;;;14.34;100.00
49311;BME280;35177;45.900;5.946;2023-10-19T07:56:38;95867.66;;;14.37;100.00
49311;BME280;35177;45.900;5.946;2023-10-19T07:59:04;95858.50;;;14.31;100.00
49311;BME280;35177;45.900;5.946;2023-10-19T08:01:32;95851.88;;;14.35;100.00
49311;BME280;35177;45.900;5.946;2023-10-19T08:03:57;95863.69;;;14.33;100.00
49311;BME280;35177;45.900;5.946;2023-10-19T08:06:23;95871.28;;;14.28;100.00
49311;BME280;35177;45.900;5.946;2023-10-19T08:08:48;95860.13;;;14.24;100.00
49311;BME280;35177;45.900;5.946;2023-10-19T08:11:14;95851.66;;;14.29;100.00
49311;BME280;35177;45.900;5.946;2023-10-19T08:13:39;95848.34;;;14.27;100.00
49311;BME280;35177;45.900;5.946;2023-10-19T08:16:05;95836.53;;;14.29;100.00
49311;BME280;35177;45.900;5.946;2023-10-19T08:18:33;95844.41;;;14.31;100.00
49311;BME280;35177;45.900;5.946;2023-10-19T08:21:01;95828.06;;;14.34;100.00
49311;BME280;35177;45.900;5.946;2023-10-19T08:23:27;95817.28;;;14.35;100.00
49311;BME280;35177;45.900;5.946;2023-10-19T08:25:53;95814.44;;;14.45;100.00
49311;BME280;35177;45.900;5.946;2023-10-19T08:28:19;95815.09;;;14.55;100.00
49311;BME280;35177;45.900;5.946;2023-10-19T08:30:45;95813.22;;;14.63;100.00
49311;BME280;35177;45.900;5.946;2023-10-19T08:33:25;95802.72;;;14.78;100.00
49311;BME280;35177;45.900;5.946;2023-10-19T08:35:54;95786.16;;;14.99;100.00
49311;BME280;35177;45.900;5.946;2023-10-19T08:38:20;95784.47;;;15.06;100.00
49311;BME280;35177;45.900;5.946;2023-10-19T08:40:47;95779.78;;;15.16;100.00
49311;BME280;35177;45.900;5.946;2023-10-19T08:43:13;95781.91;;;15.28;100.00
49311;BME280;35177;45.900;5.946;2023-10-19T08:45:39;95774.19;;;15.33;100.00
49311;BME280;35177;45.900;5.946;2023-10-19T08:48:05;95773.31;;;15.41;100.00
49311;BME280;35177;45.900;5.946;2023-10-19T08:50:32;95767.69;;;15.44;100.00
49311;BME280;35177;45.900;5.946;2023-10-19T08:53:02;95778.34;;;15.44;100.00
49311;BME280;35177;45.900;5.946;2023-10-19T08:55:30;95785.66;;;15.42;100.00
49311;BME280;35177;45.900;5.946;2023-10-19T08:58:06;95782.16;;;15.42;100.00
49311;BME280;35177;45.900;5.946;2023-10-19T09:00:48;95765.31;;;15.49;100.00
49311;BME280;35177;45.900;5.946;2023-10-19T09:03:15;95769.63;;;15.50;100.00
49311;BME280;35177;45.900;5.946;2023-10-19T09:05:41;95776.44;;;15.53;100.00
49311;BME280;35177;45.900;5.946;2023-10-19T09:08:07;95777.81;;;15.49;100.00
49311;BME280;35177;45.900;5.946;2023-10-19T09:10:35;95784.94;;;15.56;100.00
49311;BME280;35177;45.900;5.946;2023-10-19T09:15:30;95781.00;;;15.75;100.00
49311;BME280;35177;45.900;5.946;2023-10-19T09:18:19;95776.84;;;15.72;100.00
49311;BME280;35177;45.900;5.946;2023-10-19T09:20:48;95761.22;;;15.61;100.00
49311;BME280;35177;45.900;5.946;2023-10-19T09:23:22;95754.00;;;15.47;100.00
49311;BME280;35177;45.900;5.946;2023-10-19T09:25:49;95743.28;;;15.55;100.00
49311;BME280;35177;45.900;5.946;2023-10-19T09:28:15;95746.28;;;15.52;100.00
49311;BME280;35177;45.900;5.946;2023-10-19T09:30:41;95753.63;;;15.50;100.00
49311;BME280;35177;45.900;5.946;2023-10-19T09:33:09;95751.59;;;15.60;100.00
49311;BME280;35177;45.900;5.946;2023-10-19T09:35:34;95752.84;;;15.72;100.00
49311;BME280;35177;45.900;5.946;2023-10-19T09:38:02;95768.47;;;15.75;100.00
49311;BME280;35177;45.900;5.946;2023-10-19T09:40:30;95770.59;;;15.80;100.00
49311;BME280;35177;45.900;5.946;2023-10-19T09:42:56;95770.75;;;15.86;100.00
49311;BME280;35177;45.900;5.946;2023-10-19T09:45:27;95786.59;;;15.80;100.00
49311;BME280;35177;45.900;5.946;2023-10-19T09:47:55;95766.75;;;15.82;100.00
49311;BME280;35177;45.900;5.946;2023-10-19T09:50:21;95773.41;;;15.86;100.00
49311;BME280;35177;45.900;5.946;2023-10-19T09:52:47;95765.34;;;15.94;100.00
49311;BME280;35177;45.900;5.946;2023-10-19T09:55:19;95760.75;;;16.03;100.00
49311;BME280;35177;45.900;5.946;2023-10-19T09:58:12;95782.94;;;16.04;100.00
49311;BME280;35177;45.900;5.946;2023-10-19T10:00:47;95771.72;;;16.08;100.00
49311;BME280;35177;45.900;5.946;2023-10-19T10:06:29;95771.47;;;16.18;100.00
49311;BME280;35177;45.900;5.946;2023-10-19T10:08:59;95767.91;;;16.25;100.00
49311;BME280;35177;45.900;5.946;2023-10-19T10:11:26;95772.50;;;16.17;100.00
49311;BME280;35177;45.900;5.946;2023-10-19T10:13:54;95772.66;;;16.15;100.00
49311;BME280;35177;45.900;5.946;2023-10-19T10:16:25;95775.44;;;16.22;100.00
49311;BME280;35177;45.900;5.946;2023-10-19T10:18:55;95773.31;;;16.17;100.00
49311;BME280;35177;45.900;5.946;2023-10-19T10:21:22;95777.34;;;16.13;100.00
49311;BME280;35177;45.900;5.946;2023-10-19T10:23:56;95767.31;;;16.15;100.00
49311;BME280;35177;45.900;5.946;2023-10-19T10:26:26;95772.84;;;16.14;100.00
49311;BME280;35177;45.900;5.946;2023-10-19T10:29:14;95768.81;;;16.18;100.00
49311;BME280;35177;45.900;5.946;2023-10-19T10:31:46;95769.16;;;16.15;100.00
49311;BME280;35177;45.900;5.946;2023-10-19T10:37:05;95759.44;;;16.22;100.00
49311;BME280;35177;45.900;5.946;2023-10-19T10:39:33;95753.38;;;16.28;100.00
49311;BME280;35177;45.900;5.946;2023-10-19T10:42:02;95746.59;;;16.40;100.00
49311;BME280;35177;45.900;5.946;2023-10-19T10:44:40;95738.91;;;16.74;100.00
49311;BME280;35177;45.900;5.946;2023-10-19T10:47:11;95726.47;;;16.81;100.00
49311;BME280;35177;45.900;5.946;2023-10-19T10:49:59;95730.28;;;17.37;98.14
49311;BME280;35177;45.900;5.946;2023-10-19T10:54:58;95728.25;;;18.24;92.30
49311;BME280;35177;45.900;5.946;2023-10-19T10:57:30;95723.13;;;17.80;93.78
49311;BME280;35177;45.900;5.946;2023-10-19T11:02:41;95719.38;;;17.38;95.64
49311;BME280;35177;45.900;5.946;2023-10-19T11:05:15;95725.09;;;17.35;97.27
49311;BME280;35177;45.900;5.946;2023-10-19T11:08:02;95717.28;;;17.19;97.35
49311;BME280;35177;45.900;5.946;2023-10-19T11:10:28;95704.38;;;17.38;96.78
49311;BME280;35177;45.900;5.946;2023-10-19T11:13:06;95695.94;;;17.55;96.83
49311;BME280;35177;45.900;5.946;2023-10-19T11:15:33;95679.53;;;17.44;95.34
49311;BME280;35177;45.900;5.946;2023-10-19T11:17:59;95677.63;;;17.38;96.89
49311;BME280;35177;45.900;5.946;2023-10-19T11:20:26;95668.50;;;17.32;96.29
49311;BME280;35177;45.900;5.946;2023-10-19T11:22:53;95660.28;;;17.33;96.18
49311;BME280;35177;45.900;5.946;2023-10-19T11:25:25;95654.94;;;17.33;95.42
49311;BME280;35177;45.900;5.946;2023-10-19T11:27:57;95652.53;;;17.38;95.73
49311;BME280;35177;45.900;5.946;2023-10-19T11:30:32;95662.97;;;17.33;96.70
49311;BME280;35177;45.900;5.946;2023-10-19T11:32:58;95646.28;;;17.31;98.00
49311;BME280;35177;45.900;5.946;2023-10-19T11:35:28;95637.94;;;17.20;98.51
49311;BME280;35177;45.900;5.946;2023-10-19T11:37:59;95630.56;;;17.22;98.42
49311;BME280;35177;45.900;5.946;2023-10-19T11:40:25;95637.59;;;17.08;98.54
49311;BME280;35177;45.900;5.946;2023-10-19T11:42:52;95620.69;;;17.22;97.65
49311;BME280;35177;45.900;5.946;2023-10-19T11:45:18;95620.38;;;17.32;97.80
49311;BME280;35177;45.900;5.946;2023-10-19T11:47:44;95615.34;;;17.44;97.41
49311;BME280;35177;45.900;5.946;2023-10-19T11:50:11;95614.78;;;17.48;97.79
49311;BME280;35177;45.900;5.946;2023-10-19T11:52:45;95605.00;;;17.55;95.85
49311;BME280;35177;45.900;5.946;2023-10-19T11:55:14;95607.97;;;17.67;94.50
49311;BME280;35177;45.900;5.946;2023-10-19T11:57:41;95599.03;;;17.81;94.96
49311;BME280;35177;45.900;5.946;2023-10-19T12:00:09;95601.22;;;17.71;96.63
49311;BME280;35177;45.900;5.946;2023-10-19T12:02:39;95584.59;;;17.75;94.59
49311;BME280;35177;45.900;5.946;2023-10-19T12:05:06;95574.63;;;17.90;94.39
49311;BME280;35177;45.900;5.946;2023-10-19T12:07:38;95559.16;;;18.20;93.29
49311;BME280;35177;45.900;5.946;2023-10-19T12:10:06;95548.84;;;18.17;91.35
49311;BME280;35177;45.900;5.946;2023-10-19T12:12:33;95533.72;;;18.03;92.77
49311;BME280;35177;45.900;5.946;2023-10-19T12:14:59;95533.09;;;18.01;93.21
49311;BME280;35177;45.900;5.946;2023-10-19T12:17:24;95540.47;;;17.92;92.78
49311;BME280;35177;45.900;5.946;2023-10-19T12:19:52;95529.56;;;17.94;92.84
49311;BME280;35177;45.900;5.946;2023-10-19T12:22:18;95519.66;;;17.88;92.18
49311;BME280;35177;45.900;5.946;2023-10-19T12:24:43;95516.72;;;17.83;92.82
49311;BME280;35177;45.900;5.946;2023-10-19T12:27:09;95509.97;;;17.87;93.47
49311;BME280;35177;45.900;5.946;2023-10-19T12:29:35;95504.59;;;17.87;92.88
49311;BME280;35177;45.900;5.946;2023-10-19T12:32:00;95504.00;;;17.91;93.02
49311;BME280;35177;45.900;5.946;2023-10-19T12:34:25;95491.72;;;17.97;91.98
49311;BME280;35177;45.900;5.946;2023-10-19T12:36:55;95485.97;;;18.00;92.24
49311;BME280;35177;45.900;5.946;2023-10-19T12:39:24;95484.31;;;18.05;92.50
49311;BME280;35177;45.900;5.946;2023-10-19T12:42:06;95481.63;;;17.99;93.60
49311;BME280;35177;45.900;5.946;2023-10-19T12:44:33;95481.84;;;17.97;92.97
49311;BME280;35177;45.900;5.946;2023-10-19T12:47:08;95478.72;;;17.94;92.80
49311;BME280;35177;45.900;5.946;2023-10-19T12:49:36;95465.34;;;17.94;93.47
49311;BME280;35177;45.900;5.946;2023-10-19T12:52:02;95449.69;;;17.91;94.86
49311;BME280;35177;45.900;5.946;2023-10-19T12:54:33;95438.53;;;17.87;92.96
49311;BME280;35177;45.900;5.946;2023-10-19T12:57:00;95427.78;;;17.74;93.72
49311;BME280;35177;45.900;5.946;2023-10-19T12:59:26;95437.03;;;17.72;95.31
49311;BME280;35177;45.900;5.946;2023-10-19T13:01:51;95430.00;;;17.71;95.86
49311;BME280;35177;45.900;5.946;2023-10-19T13:04:20;95428.53;;;17.62;95.98
49311;BME280;35177;45.900;5.946;2023-10-19T13:06:49;95424.44;;;17.66;95.56
49311;BME280;35177;45.900;5.946;2023-10-19T13:09:14;95431.44;;;17.67;95.29
49311;BME280;35177;45.900;5.946;2023-10-19T13:11:48;95423.66;;;17.72;94.10
49311;BME280;35177;45.900;5.946;2023-10-19T13:14:17;95428.53;;;17.62;93.57
49311;BME280;35177;45.900;5.946;2023-10-19T13:16:43;95422.78;;;17.65;93.45
49311;BME280;35177;45.900;5.946;2023-10-19T13:19:08;95401.22;;;17.73;93.61
49311;BME280;35177;45.900;5.946;2023-10-19T13:21:39;95403.69;;;17.68;92.47